首页
METAR-TAF:

METAR-TAF

机场 :

拉纳卡国际机场

拉纳卡, 塞浦路斯

纬度: 34-53N, 经度: 033-38E, 海拔: 2米

当前天气观测

该预报发布于17分钟前的11:30 UTC
风速8节,风向,在南转南东西南之间变化
温度 30°C
湿度 49%
气压 1011 hPa
能见度10公里或以上
少量云层高于2500英尺, 塔状积云.

METAR: LCLK 191130Z 19008KT 150V230 9999 FEW025TCU 30/18 Q1011 NOSIG

时间: 14:47 (11:47 UTC)

预报

该预报发布于17分钟前的11:30 UTC
预报有效从19日的 12点(UTC)到 20日的 12点(UTC)
风速10节,风向南转西南
能見度: 9000
少量云层高于2500英尺
几率 30%
从 19日的 12点(UTC)到 20日的 12点(UTC)
能見度: 5000
浮尘
几率 40% :
短暂存在
从 19日的 12点(UTC)到 19日的 15点(UTC)
少量云层高于3500英尺, 积雨云.
成为
从 19日的 16点(UTC)到 19日的 19点(UTC)
风速7节,风向北转西北
成为
从 20日的 09点(UTC)到 20日的 12点(UTC)
风速10节,风向南转西南

TAF: LCLK 191130Z 1912/2012 20010KT 9000 FEW025 PROB30 1912/2012 5000 DU PROB40 TEMPO 1912/1915 FEW035CB BECMG 1916/1919 33007KT BECMG 2009/2012 20010KT

超过4000个机场的气象观测和天气预报(METAR&TAF报告)。

可查询的气象台以黄色和红色小点在地图上表示。

将鼠标移到小点上方,可查看气象台名称。

然后点击查看天气观测和预报。

如需切换地图:点击带黑十字的绿色按钮放大地图;点击带横线的绿色按钮缩小地图;或者点击绿色箭头查看邻近地区的地图。


METAR-TAF: